Terminal Aerodrome Forecast
Issued by NWS

Home | Current Version | Previous Version | Graphics & Text | Print | Product List | Glossary On
Versions: 1 2 3 4 5 6 7 8 9 10 11 12 13 14
404
FTUS43 KICT 191002 AAA
TAFSLN
TAF AMD
KSLN 191002Z 1910/2006 16010KT P6SM VCTS SCT100CB BKN200
     FM191400 19015G22KT P6SM SCT250
     FM191800 21018G28KT P6SM SKC
     FM200200 17012KT P6SM BKN250=

USA.gov is the U.S. government's official web portal to all federal, state and local government web resources and services.